createdAt,value
2023-02-01T00:01:14.219Z,6.19
2023-02-01T00:03:41.839Z,6.02
2023-02-01T00:06:10.942Z,6.11
2023-02-01T00:08:38.702Z,6.10
2023-02-01T00:11:09.649Z,6.13
2023-02-01T00:13:39.639Z,6.18
2023-02-01T00:16:08.446Z,6.14
2023-02-01T00:18:36.848Z,6.19
2023-02-01T00:21:05.381Z,6.26
2023-02-01T00:23:34.876Z,6.13
2023-02-01T00:26:02.611Z,6.20
2023-02-01T00:28:31.842Z,6.23
2023-02-01T00:31:01.166Z,6.19
2023-02-01T00:33:29.452Z,6.20
2023-02-01T00:35:59.456Z,6.21
2023-02-01T00:38:26.992Z,6.08
2023-02-01T00:40:54.617Z,6.13
2023-02-01T00:43:22.499Z,6.08
2023-02-01T00:45:51.379Z,6.13
2023-02-01T00:48:18.930Z,6.12
2023-02-01T00:50:46.851Z,6.05
2023-02-01T00:53:14.525Z,6.04
2023-02-01T00:55:42.156Z,6.11
2023-02-01T00:58:10.297Z,6.06
2023-02-01T01:00:37.935Z,6.13
2023-02-01T01:03:18.374Z,5.99
2023-02-01T01:05:46.560Z,5.93
2023-02-01T01:08:14.146Z,5.97
2023-02-01T01:10:43.363Z,5.90
2023-02-01T01:13:11.180Z,5.99
2023-02-01T01:15:39.737Z,5.86
2023-02-01T01:18:09.469Z,5.95
2023-02-01T01:20:38.357Z,6.01
2023-02-01T01:23:06.385Z,6.04
2023-02-01T01:25:34.326Z,5.98
2023-02-01T01:28:01.901Z,5.95
2023-02-01T01:30:29.642Z,6.00
2023-02-01T01:32:57.346Z,6.09
2023-02-01T01:35:26.338Z,6.03
2023-02-01T01:37:53.916Z,6.13
2023-02-01T01:40:22.235Z,6.19
2023-02-01T01:42:54.164Z,5.92
2023-02-01T01:45:28.279Z,5.98
2023-02-01T01:47:59.070Z,6.03
2023-02-01T01:50:30.949Z,6.09
2023-02-01T01:53:02.506Z,6.09
2023-02-01T01:55:34.107Z,6.17
2023-02-01T01:58:06.662Z,6.18
2023-02-01T02:00:35.195Z,6.11
2023-02-01T02:03:10.893Z,6.20
2023-02-01T02:05:40.295Z,6.31
2023-02-01T02:08:07.894Z,6.29
2023-02-01T02:10:53.340Z,6.27
2023-02-01T02:13:21.316Z,6.25
2023-02-01T02:16:03.035Z,6.24
2023-02-01T02:18:42.242Z,6.32
2023-02-01T02:21:19.782Z,6.37
2023-02-01T02:24:10.361Z,6.48
2023-02-01T02:27:23.988Z,6.45
2023-02-01T02:30:25.722Z,6.39
2023-02-01T02:33:24.111Z,6.40
2023-02-01T02:36:06.107Z,6.42
2023-02-01T02:38:42.888Z,6.22
2023-02-01T02:41:41.308Z,6.24
2023-02-01T02:44:33.130Z,6.13
2023-02-01T02:47:28.363Z,6.16
2023-02-01T02:50:22.593Z,6.11
2023-02-01T02:53:15.577Z,6.11
2023-02-01T02:55:44.144Z,6.19
2023-02-01T02:58:32.168Z,6.11
2023-02-01T03:01:17.461Z,6.14
2023-02-01T03:04:09.705Z,6.19
2023-02-01T03:06:40.680Z,6.25
2023-02-01T03:09:15.446Z,6.33
2023-02-01T03:12:05.347Z,6.38
2023-02-01T03:14:37.215Z,6.38
2023-02-01T03:17:10.637Z,6.31
2023-02-01T03:19:44.487Z,6.31
2023-02-01T03:22:18.257Z,6.31
2023-02-01T03:24:48.678Z,6.37
2023-02-01T03:27:22.578Z,6.47
2023-02-01T03:29:54.673Z,6.34
2023-02-01T03:32:22.366Z,6.19
2023-02-01T03:34:51.972Z,6.23
2023-02-01T03:37:26.050Z,6.24
2023-02-01T03:39:58.881Z,6.31
2023-02-01T03:42:35.244Z,6.30
2023-02-01T03:45:09.907Z,6.31
2023-02-01T03:47:41.285Z,6.19
2023-02-01T03:50:13.258Z,6.17
2023-02-01T03:52:45.761Z,6.27
2023-02-01T03:55:16.702Z,6.20
2023-02-01T03:57:52.664Z,6.12
2023-02-01T04:00:24.391Z,6.21
2023-02-01T04:02:53.629Z,6.24
2023-02-01T04:05:22.050Z,6.19
2023-02-01T04:07:51.026Z,6.10
2023-02-01T04:10:19.823Z,6.07
2023-02-01T04:12:48.700Z,6.13
2023-02-01T04:15:16.621Z,6.14
2023-02-01T04:17:44.360Z,6.18
2023-02-01T04:20:12.715Z,6.04
2023-02-01T04:22:40.392Z,6.15
2023-02-01T04:25:10.164Z,6.23
2023-02-01T04:27:37.730Z,6.29
2023-02-01T04:30:10.935Z,6.29
2023-02-01T04:32:40.190Z,6.25
2023-02-01T04:35:08.983Z,6.29
2023-02-01T04:37:37.140Z,6.25
2023-02-01T04:40:07.962Z,6.29
2023-02-01T04:42:36.913Z,6.28
2023-02-01T04:45:05.114Z,6.37
2023-02-01T04:47:32.775Z,6.46
2023-02-01T04:50:00.380Z,6.41
2023-02-01T04:52:28.332Z,6.36
2023-02-01T04:54:59.307Z,6.38
2023-02-01T04:57:27.650Z,6.34
2023-02-01T04:59:56.881Z,6.33
2023-02-01T05:02:25.453Z,6.35
2023-02-01T05:04:53.109Z,6.38
2023-02-01T05:07:21.124Z,6.27
2023-02-01T05:09:48.767Z,6.29
2023-02-01T05:12:34.235Z,6.29
2023-02-01T05:15:06.606Z,6.21
2023-02-01T05:17:35.842Z,6.16
2023-02-01T05:20:03.577Z,6.21
2023-02-01T05:22:31.253Z,6.24
2023-02-01T05:24:58.838Z,6.24
2023-02-01T05:27:26.944Z,6.14
2023-02-01T05:29:54.604Z,6.28
2023-02-01T05:32:25.933Z,6.31
2023-02-01T05:34:53.781Z,6.24
2023-02-01T05:37:21.368Z,6.25
2023-02-01T05:39:48.990Z,6.29
2023-02-01T05:42:16.655Z,6.38
2023-02-01T05:44:44.288Z,6.27
2023-02-01T05:47:12.146Z,6.38
2023-02-01T05:49:41.125Z,6.32
2023-02-01T05:52:08.856Z,6.38
2023-02-01T05:54:36.393Z,6.26
2023-02-01T05:57:04.141Z,6.29
2023-02-01T05:59:31.875Z,6.15
2023-02-01T06:01:59.995Z,6.12
2023-02-01T06:04:28.118Z,6.00
2023-02-01T06:06:57.054Z,5.85
2023-02-01T06:09:25.583Z,5.74
2023-02-01T06:11:53.210Z,5.61
2023-02-01T06:14:21.264Z,5.55
2023-02-01T06:16:51.177Z,5.69
2023-02-01T06:19:19.081Z,5.69
2023-02-01T06:21:46.774Z,5.66
2023-02-01T06:24:18.700Z,5.58
2023-02-01T06:26:50.338Z,5.50
2023-02-01T06:29:18.264Z,5.58
2023-02-01T06:31:51.740Z,5.64
2023-02-01T06:34:22.297Z,5.64
2023-02-01T06:36:50.779Z,5.69
2023-02-01T06:39:20.335Z,5.63
2023-02-01T06:41:48.963Z,5.54
2023-02-01T06:44:16.855Z,5.56
2023-02-01T06:46:44.705Z,5.41
2023-02-01T06:49:14.141Z,5.43
2023-02-01T06:51:41.895Z,5.42
2023-02-01T06:54:09.724Z,5.41
2023-02-01T06:56:39.510Z,5.34
2023-02-01T06:59:07.805Z,5.33
2023-02-01T07:01:36.473Z,5.28
2023-02-01T07:04:05.454Z,5.21
2023-02-01T07:06:33.082Z,5.22
2023-02-01T07:09:01.569Z,5.61
2023-02-01T07:11:29.305Z,5.66
2023-02-01T07:14:00.565Z,5.76
2023-02-01T07:16:28.718Z,5.62
2023-02-01T07:18:56.248Z,5.85
2023-02-01T07:21:23.921Z,5.99
2023-02-01T07:23:53.873Z,6.04
2023-02-01T07:26:21.892Z,6.37
2023-02-01T07:28:49.973Z,6.49
2023-02-01T07:31:22.524Z,6.67
2023-02-01T07:33:52.462Z,6.70
2023-02-01T07:36:21.020Z,6.64
2023-02-01T07:38:49.006Z,6.58
2023-02-01T07:41:17.107Z,6.66
2023-02-01T07:43:44.767Z,6.75
2023-02-01T07:46:12.963Z,6.64
2023-02-01T07:48:41.963Z,6.63
2023-02-01T07:51:12.428Z,6.65
2023-02-01T07:53:40.729Z,6.60
2023-02-01T07:56:13.767Z,6.73
2023-02-01T07:58:41.414Z,6.88
2023-02-01T08:01:22.420Z,6.83
2023-02-01T08:03:52.965Z,6.81
2023-02-01T08:06:21.408Z,6.87
2023-02-01T08:08:49.040Z,6.75
2023-02-01T08:11:17.780Z,6.77
2023-02-01T08:13:45.549Z,6.93
2023-02-01T08:16:14.617Z,6.95
2023-02-01T08:18:42.792Z,6.96
2023-02-01T08:21:18.910Z,7.12
2023-02-01T08:23:46.952Z,7.04
2023-02-01T08:26:17.322Z,7.03
2023-02-01T08:28:47.018Z,6.92
2023-02-01T08:31:16.688Z,7.01
2023-02-01T08:33:45.946Z,7.09
2023-02-01T08:36:14.813Z,7.30
2023-02-01T08:38:42.579Z,7.33
2023-02-01T08:41:12.543Z,7.20
2023-02-01T08:43:40.281Z,7.05
2023-02-01T08:46:08.994Z,7.07
2023-02-01T08:48:37.307Z,7.09
2023-02-01T08:51:06.650Z,7.07
2023-02-01T08:53:36.943Z,6.95
2023-02-01T08:56:04.937Z,6.95
2023-02-01T08:58:32.481Z,7.04
2023-02-01T09:01:05.014Z,7.00
2023-02-01T09:03:32.789Z,6.99
2023-02-01T09:06:03.511Z,7.09
2023-02-01T09:08:31.493Z,7.11
2023-02-01T09:11:04.530Z,7.06
2023-02-01T09:13:32.788Z,7.03
2023-02-01T09:16:01.003Z,7.04
2023-02-01T09:18:28.783Z,7.07
2023-02-01T09:20:56.351Z,7.20
2023-02-01T09:23:23.959Z,7.20
2023-02-01T09:25:55.310Z,7.15
2023-02-01T09:28:24.249Z,7.15
2023-02-01T09:30:51.963Z,7.09
2023-02-01T09:33:19.641Z,7.21
2023-02-01T09:35:47.261Z,7.25
2023-02-01T09:38:14.833Z,7.14
2023-02-01T09:40:47.064Z,7.19
2023-02-01T09:43:32.655Z,7.21
2023-02-01T09:46:12.115Z,7.22
2023-02-01T09:48:44.008Z,7.33
2023-02-01T09:51:17.182Z,7.46
2023-02-01T09:53:48.868Z,7.49
2023-02-01T09:56:22.933Z,7.61
2023-02-01T09:59:02.756Z,7.53
2023-02-01T10:01:31.276Z,7.48
2023-02-01T10:04:04.811Z,7.36
2023-02-01T10:06:43.992Z,7.41
2023-02-01T10:09:21.359Z,7.44
2023-02-01T10:12:04.206Z,7.53
2023-02-01T10:14:47.579Z,7.54
2023-02-01T10:17:28.149Z,7.34
2023-02-01T10:20:08.329Z,7.49
2023-02-01T10:23:10.278Z,7.54
2023-02-01T10:25:39.069Z,7.57
2023-02-01T10:28:06.711Z,7.70
2023-02-01T10:30:45.166Z,7.62
2023-02-01T10:33:18.945Z,7.79
2023-02-01T10:35:48.249Z,7.77
2023-02-01T10:38:26.513Z,7.70
2023-02-01T10:40:57.096Z,7.66
2023-02-01T10:43:24.678Z,7.81
2023-02-01T10:45:53.817Z,7.71
2023-02-01T10:48:21.649Z,7.66
2023-02-01T10:50:55.799Z,7.61
2023-02-01T10:53:27.842Z,7.47
2023-02-01T10:55:56.617Z,7.56
2023-02-01T10:58:30.333Z,7.58
2023-02-01T11:01:04.414Z,7.58
2023-02-01T11:03:55.380Z,7.58
2023-02-01T11:06:31.850Z,7.53
2023-02-01T11:09:01.595Z,7.57
2023-02-01T11:11:30.051Z,7.47
2023-02-01T11:13:59.620Z,7.56
2023-02-01T11:16:38.451Z,7.61
2023-02-01T11:19:07.266Z,7.67
2023-02-01T11:21:36.521Z,7.64
2023-02-01T11:24:07.741Z,7.57
2023-02-01T11:26:35.408Z,7.66
2023-02-01T11:29:07.373Z,7.59
2023-02-01T11:31:37.244Z,7.51
2023-02-01T11:34:10.785Z,7.65
2023-02-01T11:36:39.536Z,7.57
2023-02-01T11:39:20.596Z,7.61
2023-02-01T11:41:59.203Z,7.64
2023-02-01T11:44:33.305Z,7.49
2023-02-01T11:47:25.028Z,7.56
2023-02-01T11:49:54.544Z,7.55
2023-02-01T11:52:46.010Z,7.70
2023-02-01T11:55:28.027Z,7.77
2023-02-01T11:58:08.270Z,7.81
2023-02-01T12:00:51.198Z,7.88
2023-02-01T12:04:03.475Z,7.74
2023-02-01T12:06:39.922Z,7.65
2023-02-01T12:09:31.440Z,7.64
2023-02-01T12:12:07.690Z,7.68
2023-02-01T12:14:57.287Z,7.66
2023-02-01T12:17:58.790Z,7.86
2023-02-01T12:20:47.162Z,7.75
2023-02-01T12:23:29.303Z,7.86
2023-02-01T12:26:09.497Z,7.89
2023-02-01T12:29:03.635Z,7.81
2023-02-01T12:31:53.816Z,7.80
2023-02-01T12:34:42.158Z,7.92
2023-02-01T12:37:21.710Z,7.90
2023-02-01T12:40:09.674Z,7.87
2023-02-01T12:42:42.806Z,7.90
2023-02-01T12:45:17.232Z,7.88
2023-02-01T12:47:51.599Z,7.81
2023-02-01T12:50:26.628Z,7.81
2023-02-01T12:52:59.949Z,7.92
2023-02-01T12:55:37.564Z,7.93
2023-02-01T12:58:13.987Z,7.72
2023-02-01T13:00:46.154Z,7.66
2023-02-01T13:03:21.701Z,7.77
2023-02-01T13:05:55.103Z,7.75
2023-02-01T13:08:27.822Z,7.67
2023-02-01T13:11:01.546Z,7.73
2023-02-01T13:13:40.070Z,7.72
2023-02-01T13:16:18.153Z,7.80
2023-02-01T13:18:51.693Z,7.98
2023-02-01T13:21:24.672Z,8.00
2023-02-01T13:23:55.294Z,7.94
2023-02-01T13:26:23.251Z,7.95
2023-02-01T13:28:54.203Z,7.90
2023-02-01T13:31:34.715Z,7.88
2023-02-01T13:34:33.683Z,7.98
2023-02-01T13:37:24.653Z,7.79
2023-02-01T13:40:07.005Z,7.86
2023-02-01T13:42:43.639Z,7.90
2023-02-01T13:45:17.470Z,8.01
2023-02-01T13:47:48.107Z,7.79
2023-02-01T13:50:23.819Z,7.90
2023-02-01T13:52:56.016Z,7.74
2023-02-01T13:55:32.067Z,7.78
2023-02-01T13:58:20.584Z,7.80
2023-02-01T14:00:49.308Z,7.97
2023-02-01T14:03:19.726Z,7.98
2023-02-01T14:06:05.689Z,8.00
2023-02-01T14:09:15.044Z,8.18
2023-02-01T14:11:47.168Z,8.20
2023-02-01T14:14:45.544Z,8.19
2023-02-01T14:17:38.187Z,8.22
2023-02-01T14:20:51.889Z,8.27
2023-02-01T14:23:26.172Z,8.19
2023-02-01T14:26:22.250Z,8.26
2023-02-01T14:29:04.200Z,8.30
2023-02-01T14:31:37.370Z,8.20
2023-02-01T14:34:14.875Z,8.32
2023-02-01T14:36:46.800Z,8.30
2023-02-01T14:39:42.190Z,8.20
2023-02-01T14:42:24.422Z,8.40
2023-02-01T14:44:58.635Z,8.47
2023-02-01T14:47:32.812Z,8.58
2023-02-01T14:50:20.560Z,8.51
2023-02-01T14:52:51.984Z,8.48
2023-02-01T14:55:24.161Z,8.53
2023-02-01T14:57:55.514Z,8.69
2023-02-01T15:00:27.082Z,8.66
2023-02-01T15:02:58.078Z,8.55
2023-02-01T15:05:32.656Z,8.77
2023-02-01T15:08:06.602Z,8.66
2023-02-01T15:10:42.192Z,8.64
2023-02-01T15:13:21.633Z,8.68
2023-02-01T15:16:07.476Z,8.54
2023-02-01T15:18:35.263Z,8.59
2023-02-01T15:21:28.159Z,8.66
2023-02-01T15:23:52.855Z,8.74
2023-02-01T15:26:27.884Z,8.60
2023-02-01T15:28:55.548Z,8.67
2023-02-01T15:31:41.512Z,8.40
2023-02-01T15:34:12.667Z,8.36
2023-02-01T15:36:45.776Z,8.41
2023-02-01T15:39:26.691Z,8.32
2023-02-01T15:41:58.009Z,8.29
2023-02-01T15:44:35.556Z,8.29
2023-02-01T15:47:15.452Z,8.27
2023-02-01T15:49:45.562Z,8.24
2023-02-01T15:52:22.714Z,8.20
2023-02-01T15:54:54.227Z,8.28
2023-02-01T15:57:31.078Z,8.23
2023-02-01T16:00:00.528Z,8.26
2023-02-01T16:02:36.044Z,8.29
2023-02-01T16:05:04.576Z,8.19
2023-02-01T16:07:35.454Z,8.24
2023-02-01T16:10:19.902Z,8.21
2023-02-01T16:12:49.223Z,8.16
2023-02-01T16:15:17.231Z,8.08
2023-02-01T16:17:46.812Z,7.98
2023-02-01T16:20:15.004Z,8.06
2023-02-01T16:22:42.696Z,8.00
2023-02-01T16:25:10.702Z,8.05
2023-02-01T16:27:39.654Z,8.09
2023-02-01T16:30:10.715Z,8.05
2023-02-01T16:32:39.983Z,7.98
2023-02-01T16:35:20.037Z,7.92
2023-02-01T16:37:47.794Z,7.83
2023-02-01T16:40:16.299Z,7.91
2023-02-01T16:42:44.355Z,8.08
2023-02-01T16:45:12.783Z,8.02
2023-02-01T16:47:45.425Z,7.89
2023-02-01T16:50:23.347Z,7.87
2023-02-01T16:52:54.843Z,7.92
2023-02-01T16:55:26.309Z,8.01
2023-02-01T16:57:54.200Z,7.92
2023-02-01T17:00:25.106Z,7.96
2023-02-01T17:02:53.703Z,7.95
2023-02-01T17:05:23.327Z,7.88
2023-02-01T17:07:51.448Z,7.82
2023-02-01T17:10:33.935Z,7.74
2023-02-01T17:13:03.586Z,7.79
2023-02-01T17:15:36.752Z,7.66
2023-02-01T17:18:05.053Z,7.68
2023-02-01T17:20:34.599Z,7.67
2023-02-01T17:23:04.473Z,7.63
2023-02-01T17:25:32.920Z,7.68
2023-02-01T17:28:00.952Z,7.74
2023-02-01T17:30:28.833Z,7.69
2023-02-01T17:32:56.805Z,7.70
2023-02-01T17:35:26.646Z,7.66
2023-02-01T17:37:56.459Z,7.69
2023-02-01T17:40:24.458Z,7.59
2023-02-01T17:42:52.187Z,7.55
2023-02-01T17:45:27.946Z,7.53
2023-02-01T17:47:56.381Z,7.65
2023-02-01T17:50:28.261Z,7.73
2023-02-01T17:53:00.201Z,7.68
2023-02-01T17:55:36.229Z,7.63
2023-02-01T17:58:19.541Z,7.70
2023-02-01T18:00:49.253Z,7.68
2023-02-01T18:03:28.002Z,7.60
2023-02-01T18:05:57.371Z,7.68
2023-02-01T18:08:28.463Z,7.68
2023-02-01T18:11:01.013Z,7.60
2023-02-01T18:13:29.383Z,7.51
2023-02-01T18:15:59.102Z,7.42
2023-02-01T18:18:28.213Z,7.45
2023-02-01T18:20:56.131Z,7.42
2023-02-01T18:23:26.696Z,7.52
2023-02-01T18:25:54.446Z,7.41
2023-02-01T18:28:25.040Z,7.34
2023-02-01T18:30:54.331Z,7.25
2023-02-01T18:33:22.472Z,7.08
2023-02-01T18:35:50.343Z,7.27
2023-02-01T18:38:18.264Z,7.22
2023-02-01T18:40:52.199Z,7.11
2023-02-01T18:43:21.583Z,7.07
2023-02-01T18:45:49.852Z,7.04
2023-02-01T18:48:21.168Z,7.01
2023-02-01T18:50:51.792Z,7.00
2023-02-01T18:53:21.723Z,6.95
2023-02-01T18:55:53.404Z,7.05
2023-02-01T18:58:26.110Z,7.00
2023-02-01T19:00:55.967Z,6.97
2023-02-01T19:03:26.860Z,6.99
2023-02-01T19:06:00.583Z,7.03
2023-02-01T19:08:28.975Z,7.05
2023-02-01T19:11:00.702Z,7.13
2023-02-01T19:13:31.581Z,7.11
2023-02-01T19:15:59.612Z,7.20
2023-02-01T19:18:27.323Z,7.18
2023-02-01T19:20:55.126Z,7.19
2023-02-01T19:23:24.092Z,7.22
2023-02-01T19:25:54.330Z,7.11
2023-02-01T19:28:23.265Z,7.17
2023-02-01T19:30:51.488Z,7.18
2023-02-01T19:33:19.239Z,7.26
2023-02-01T19:35:46.906Z,7.15
2023-02-01T19:38:16.894Z,7.28
2023-02-01T19:40:49.714Z,7.24
2023-02-01T19:43:17.633Z,7.19
2023-02-01T19:45:46.654Z,7.22
2023-02-01T19:48:15.676Z,7.36
2023-02-01T19:50:43.409Z,7.28
2023-02-01T19:53:11.292Z,7.38
2023-02-01T19:55:38.924Z,7.35
2023-02-01T19:58:07.848Z,7.40
2023-02-01T20:00:35.961Z,7.38
2023-02-01T20:03:05.509Z,7.40
2023-02-01T20:05:35.365Z,7.43
2023-02-01T20:08:05.999Z,7.37
2023-02-01T20:10:33.558Z,7.34
2023-02-01T20:13:01.119Z,7.34
2023-02-01T20:15:28.695Z,7.40
2023-02-01T20:17:58.192Z,7.38
2023-02-01T20:20:36.165Z,7.34
2023-02-01T20:23:03.916Z,7.33
2023-02-01T20:25:32.821Z,7.25
2023-02-01T20:28:02.132Z,7.38
2023-02-01T20:30:32.245Z,7.45
2023-02-01T20:33:00.141Z,7.32
2023-02-01T20:35:29.434Z,7.31
2023-02-01T20:37:59.046Z,7.36
2023-02-01T20:40:26.824Z,7.40
2023-02-01T20:42:54.843Z,7.39
2023-02-01T20:45:22.621Z,7.46
2023-02-01T20:47:53.671Z,7.50
2023-02-01T20:50:25.331Z,7.55
2023-02-01T20:52:54.550Z,7.54
2023-02-01T20:55:31.404Z,7.64
2023-02-01T20:58:01.938Z,7.63
2023-02-01T21:00:31.458Z,7.50
2023-02-01T21:02:59.317Z,7.52
2023-02-01T21:05:39.991Z,7.54
2023-02-01T21:08:13.949Z,7.53
2023-02-01T21:10:42.941Z,7.54
2023-02-01T21:13:10.913Z,7.51
2023-02-01T21:15:51.118Z,7.42
2023-02-01T21:18:39.185Z,7.45
2023-02-01T21:21:08.213Z,7.43
2023-02-01T21:23:44.858Z,7.48
2023-02-01T21:26:24.648Z,7.39
2023-02-01T21:29:12.941Z,7.50
2023-02-01T21:31:45.957Z,7.44
2023-02-01T21:34:13.896Z,7.52
2023-02-01T21:37:06.232Z,7.47
2023-02-01T21:39:38.744Z,7.36
2023-02-01T21:42:17.968Z,7.48
2023-02-01T21:44:50.689Z,7.50
2023-02-01T21:47:24.027Z,7.54
2023-02-01T21:49:54.978Z,7.60
2023-02-01T21:52:28.927Z,7.72
2023-02-01T21:54:59.732Z,7.72
2023-02-01T21:57:28.744Z,7.73
2023-02-01T22:00:03.523Z,7.57
2023-02-01T22:02:33.037Z,7.62
2023-02-01T22:08:04.643Z,7.58
2023-02-01T22:10:33.843Z,7.62
2023-02-01T22:13:09.163Z,7.57
2023-02-01T22:15:38.044Z,7.52
2023-02-01T22:18:06.047Z,7.54
2023-02-01T22:20:33.674Z,7.43
2023-02-01T22:23:10.470Z,7.57
2023-02-01T22:26:17.441Z,7.58
2023-02-01T22:28:45.724Z,7.56
2023-02-01T22:31:16.991Z,7.45
2023-02-01T22:33:49.310Z,7.48
2023-02-01T22:36:22.711Z,7.51
2023-02-01T22:38:50.281Z,7.59
2023-02-01T22:41:20.489Z,7.55
2023-02-01T22:43:48.750Z,7.51
2023-02-01T22:46:18.137Z,7.63
2023-02-01T22:48:47.601Z,7.66
2023-02-01T22:51:18.226Z,7.59
2023-02-01T22:53:47.685Z,7.55
2023-02-01T22:56:16.141Z,7.64
2023-02-01T22:58:48.026Z,7.37
2023-02-01T23:01:17.531Z,7.36
2023-02-01T23:03:45.364Z,7.47
2023-02-01T23:06:14.184Z,7.51
2023-02-01T23:08:42.043Z,7.57
2023-02-01T23:11:10.872Z,7.69
2023-02-01T23:13:39.100Z,7.67
2023-02-01T23:16:13.815Z,7.67
2023-02-01T23:18:42.582Z,7.61
2023-02-01T23:21:12.705Z,7.69
2023-02-01T23:23:41.988Z,7.68
2023-02-01T23:26:12.188Z,7.61
2023-02-01T23:28:44.202Z,7.67
2023-02-01T23:31:15.317Z,7.45
2023-02-01T23:33:46.203Z,7.39
2023-02-01T23:36:17.465Z,7.44
2023-02-01T23:38:45.998Z,7.44
2023-02-01T23:41:18.328Z,7.51
2023-02-01T23:44:01.199Z,7.51
2023-02-01T23:46:33.464Z,7.43
2023-02-01T23:49:02.498Z,7.49
2023-02-01T23:51:30.826Z,7.49
2023-02-01T23:53:58.728Z,7.34
2023-02-01T23:56:28.641Z,7.40
2023-02-01T23:58:56.814Z,7.50
